Capitol Logistics 2156

Operating for AJT



KBWI
Baltimore/Washington International Thurgood Marshall Airport
Baltimore, Maryland
KCVG
Cincinnati/Northern Kentucky International Airport
Covington, Kentucky

Activity Log

Date Flight Route Aircraft Duration
04/18/2021 CPX2156 TERPZ7 OTTTO COLNS GAVNN5 B763 1h 17m
04/03/2021 CPX2156 TERPZ7 OTTTO COLNS GAVNN5 B752 1h 35m

Route Details

Aircraft Information
Primary: Boeing 767-300BDSF
Backup: Airbus A300-600F
Route Data
Distance: 373nm
Duration: 1h 14m
Recm'd Route: TERPZ7 OTTTO COLNS GAVNN5
Origin Wx: KBWI 020454Z 30004KT 10SM FEW080 19/18 A2990 RMK AO2 SLP123 T01890178 402500189
Dest. Wx: KCVG 020452Z 34006KT 10SM CLR 18/12 A3007 RMK AO2 SLP174 T01830122 402720139
Notes: